Terminal Aerodrome Forecast
Issued by NWS Twin Cities, MN

Home | Current Version | Previous Version | Text Only | Print | Product List | Glossary On
Versions: 1 2 3 4 5 6 7 8 9 10 11 12 13 14 15 16 17 18
000
FTUS43 KMPX 231351 AAA
TAFSTC
TAF AMD
KSTC 231351Z 2314/2412 08008KT P6SM BKN016 BKN035
      TEMPO 2314/2315 SCT016
     FM231500 13011G18KT P6SM -SHRA SCT020 OVC040
      TEMPO 2315/2317 3SM TSRA BKN035CB
     FM232300 15010KT 2SM TSRA SCT020 BKN040CB
     FM240030 19009KT P6SM SCT050 BKN100
     FM240700 26007KT P6SM SKC=

USA.gov is the U.S. government's official web portal to all federal, state and local government web resources and services.